sensor_id;sensor_type;location;lat;lon;timestamp;pressure;altitude;pressure_sealevel;temperature;humidity
57250;BME280;43102;52.014;-0.680;2024-02-16T00:00:00;99645;;;12.94;86.06
57250;BME280;43102;52.014;-0.680;2024-02-16T00:01:00;99645;;;12.94;86.06
57250;BME280;43102;52.014;-0.680;2024-02-16T00:02:00;99645;;;12.94;86.06
57250;BME280;43102;52.014;-0.680;2024-02-16T00:03:00;99645;;;12.94;86.06
57250;BME280;43102;52.014;-0.680;2024-02-16T00:04:00;99657;;;12.91;86.42
57250;BME280;43102;52.014;-0.680;2024-02-16T00:05:00;99657;;;12.91;86.42
57250;BME280;43102;52.014;-0.680;2024-02-16T00:06:00;99657;;;12.91;86.42
57250;BME280;43102;52.014;-0.680;2024-02-16T00:07:00;99657;;;12.91;86.42
57250;BME280;43102;52.014;-0.680;2024-02-16T00:08:00;99657;;;12.91;86.42
57250;BME280;43102;52.014;-0.680;2024-02-16T00:09:00;99667;;;12.87;86.72
57250;BME280;43102;52.014;-0.680;2024-02-16T00:10:00;99667;;;12.87;86.72
57250;BME280;43102;52.014;-0.680;2024-02-16T00:11:00;99667;;;12.87;86.72
57250;BME280;43102;52.014;-0.680;2024-02-16T00:12:00;99667;;;12.87;86.72
57250;BME280;43102;52.014;-0.680;2024-02-16T00:13:00;99667;;;12.87;86.72
57250;BME280;43102;52.014;-0.680;2024-02-16T00:14:00;99655;;;12.84;86.97
57250;BME280;43102;52.014;-0.680;2024-02-16T00:15:00;99655;;;12.84;86.97
57250;BME280;43102;52.014;-0.680;2024-02-16T00:16:00;99655;;;12.84;86.97
57250;BME280;43102;52.014;-0.680;2024-02-16T00:17:00;99655;;;12.84;86.97
57250;BME280;43102;52.014;-0.680;2024-02-16T00:18:00;99655;;;12.84;86.97
57250;BME280;43102;52.014;-0.680;2024-02-16T00:19:00;99655;;;12.86;87.02
57250;BME280;43102;52.014;-0.680;2024-02-16T00:20:00;99655;;;12.86;87.02
57250;BME280;43102;52.014;-0.680;2024-02-16T00:21:00;99655;;;12.86;87.02
57250;BME280;43102;52.014;-0.680;2024-02-16T00:22:00;99655;;;12.86;87.02
57250;BME280;43102;52.014;-0.680;2024-02-16T00:23:00;99655;;;12.86;87.02
57250;BME280;43102;52.014;-0.680;2024-02-16T00:24:00;99650;;;12.84;87.17
57250;BME280;43102;52.014;-0.680;2024-02-16T00:25:00;99650;;;12.84;87.17
57250;BME280;43102;52.014;-0.680;2024-02-16T00:26:01;99650;;;12.84;87.17
57250;BME280;43102;52.014;-0.680;2024-02-16T00:27:00;99650;;;12.84;87.17
57250;BME280;43102;52.014;-0.680;2024-02-16T00:28:00;99650;;;12.84;87.17
57250;BME280;43102;52.014;-0.680;2024-02-16T00:29:00;99648;;;12.82;87.37
57250;BME280;43102;52.014;-0.680;2024-02-16T00:30:00;99648;;;12.82;87.37
57250;BME280;43102;52.014;-0.680;2024-02-16T00:31:00;99648;;;12.82;87.37
57250;BME280;43102;52.014;-0.680;2024-02-16T00:32:00;99648;;;12.82;87.37
57250;BME280;43102;52.014;-0.680;2024-02-16T00:33:00;99648;;;12.82;87.37
57250;BME280;43102;52.014;-0.680;2024-02-16T00:34:00;99662;;;12.79;87.74
57250;BME280;43102;52.014;-0.680;2024-02-16T00:35:00;99662;;;12.79;87.74
57250;BME280;43102;52.014;-0.680;2024-02-16T00:36:00;99662;;;12.79;87.74
57250;BME280;43102;52.014;-0.680;2024-02-16T00:37:00;99662;;;12.79;87.74
57250;BME280;43102;52.014;-0.680;2024-02-16T00:38:00;99662;;;12.79;87.74
57250;BME280;43102;52.014;-0.680;2024-02-16T00:39:00;99660;;;12.78;87.91
57250;BME280;43102;52.014;-0.680;2024-02-16T00:40:00;99660;;;12.78;87.91
57250;BME280;43102;52.014;-0.680;2024-02-16T00:41:00;99660;;;12.78;87.91
57250;BME280;43102;52.014;-0.680;2024-02-16T00:42:00;99660;;;12.78;87.91
57250;BME280;43102;52.014;-0.680;2024-02-16T00:43:00;99660;;;12.78;87.91
57250;BME280;43102;52.014;-0.680;2024-02-16T00:44:00;99670;;;12.78;88.03
57250;BME280;43102;52.014;-0.680;2024-02-16T00:45:00;99670;;;12.78;88.03
57250;BME280;43102;52.014;-0.680;2024-02-16T00:46:00;99670;;;12.78;88.03
57250;BME280;43102;52.014;-0.680;2024-02-16T00:47:00;99670;;;12.78;88.03
57250;BME280;43102;52.014;-0.680;2024-02-16T00:48:00;99670;;;12.78;88.03
57250;BME280;43102;52.014;-0.680;2024-02-16T00:49:00;99677;;;12.76;88.07
57250;BME280;43102;52.014;-0.680;2024-02-16T00:50:00;99677;;;12.76;88.07
57250;BME280;43102;52.014;-0.680;2024-02-16T00:51:00;99677;;;12.76;88.07
57250;BME280;43102;52.014;-0.680;2024-02-16T00:52:00;99677;;;12.76;88.07
57250;BME280;43102;52.014;-0.680;2024-02-16T00:53:00;99677;;;12.76;88.07
57250;BME280;43102;52.014;-0.680;2024-02-16T00:54:00;99688;;;12.78;88.17
57250;BME280;43102;52.014;-0.680;2024-02-16T00:55:00;99688;;;12.78;88.17
57250;BME280;43102;52.014;-0.680;2024-02-16T00:56:00;99688;;;12.78;88.17
57250;BME280;43102;52.014;-0.680;2024-02-16T00:57:00;99688;;;12.78;88.17
57250;BME280;43102;52.014;-0.680;2024-02-16T00:58:00;99688;;;12.78;88.17
57250;BME280;43102;52.014;-0.680;2024-02-16T00:59:00;99683;;;12.77;88.26
57250;BME280;43102;52.014;-0.680;2024-02-16T01:00:00;99683;;;12.77;88.26
57250;BME280;43102;52.014;-0.680;2024-02-16T01:01:00;99683;;;12.77;88.26
57250;BME280;43102;52.014;-0.680;2024-02-16T01:02:00;99683;;;12.77;88.26
57250;BME280;43102;52.014;-0.680;2024-02-16T01:03:00;99683;;;12.77;88.26
57250;BME280;43102;52.014;-0.680;2024-02-16T01:04:00;99695;;;12.75;88.46
57250;BME280;43102;52.014;-0.680;2024-02-16T01:05:00;99695;;;12.75;88.46
57250;BME280;43102;52.014;-0.680;2024-02-16T01:06:00;99695;;;12.75;88.46
57250;BME280;43102;52.014;-0.680;2024-02-16T01:07:00;99695;;;12.75;88.46
57250;BME280;43102;52.014;-0.680;2024-02-16T01:08:00;99695;;;12.75;88.46
57250;BME280;43102;52.014;-0.680;2024-02-16T01:09:00;99698;;;12.76;88.72
57250;BME280;43102;52.014;-0.680;2024-02-16T01:10:00;99698;;;12.76;88.72
57250;BME280;43102;52.014;-0.680;2024-02-16T01:11:00;99698;;;12.76;88.72
57250;BME280;43102;52.014;-0.680;2024-02-16T01:12:00;99698;;;12.76;88.72
57250;BME280;43102;52.014;-0.680;2024-02-16T01:13:00;99698;;;12.76;88.72
57250;BME280;43102;52.014;-0.680;2024-02-16T01:14:00;99683;;;12.75;88.75
57250;BME280;43102;52.014;-0.680;2024-02-16T01:15:00;99683;;;12.75;88.75
57250;BME280;43102;52.014;-0.680;2024-02-16T01:16:00;99683;;;12.75;88.75
57250;BME280;43102;52.014;-0.680;2024-02-16T01:17:00;99683;;;12.75;88.75
57250;BME280;43102;52.014;-0.680;2024-02-16T01:18:00;99683;;;12.75;88.75
57250;BME280;43102;52.014;-0.680;2024-02-16T01:19:00;99690;;;12.73;89.04
57250;BME280;43102;52.014;-0.680;2024-02-16T01:20:00;99690;;;12.73;89.04
57250;BME280;43102;52.014;-0.680;2024-02-16T01:21:00;99690;;;12.73;89.04
57250;BME280;43102;52.014;-0.680;2024-02-16T01:22:00;99690;;;12.73;89.04
57250;BME280;43102;52.014;-0.680;2024-02-16T01:23:00;99690;;;12.73;89.04
57250;BME280;43102;52.014;-0.680;2024-02-16T01:24:00;99683;;;12.73;89.12
57250;BME280;43102;52.014;-0.680;2024-02-16T01:25:00;99683;;;12.73;89.12
57250;BME280;43102;52.014;-0.680;2024-02-16T01:26:00;99683;;;12.73;89.12
57250;BME280;43102;52.014;-0.680;2024-02-16T01:27:00;99683;;;12.73;89.12
57250;BME280;43102;52.014;-0.680;2024-02-16T01:28:00;99683;;;12.73;89.12
57250;BME280;43102;52.014;-0.680;2024-02-16T01:29:00;99689;;;12.74;89.27
57250;BME280;43102;52.014;-0.680;2024-02-16T01:30:00;99689;;;12.74;89.27
57250;BME280;43102;52.014;-0.680;2024-02-16T01:31:00;99689;;;12.74;89.27
57250;BME280;43102;52.014;-0.680;2024-02-16T01:32:00;99689;;;12.74;89.27
57250;BME280;43102;52.014;-0.680;2024-02-16T01:33:00;99689;;;12.74;89.27
57250;BME280;43102;52.014;-0.680;2024-02-16T01:34:00;99710;;;12.73;89.43
57250;BME280;43102;52.014;-0.680;2024-02-16T01:35:00;99710;;;12.73;89.43
57250;BME280;43102;52.014;-0.680;2024-02-16T01:36:00;99710;;;12.73;89.43
57250;BME280;43102;52.014;-0.680;2024-02-16T01:37:00;99710;;;12.73;89.43
57250;BME280;43102;52.014;-0.680;2024-02-16T01:38:00;99710;;;12.73;89.43
57250;BME280;43102;52.014;-0.680;2024-02-16T01:39:00;99729;;;12.74;89.52
57250;BME280;43102;52.014;-0.680;2024-02-16T01:40:00;99729;;;12.74;89.52
57250;BME280;43102;52.014;-0.680;2024-02-16T01:41:00;99729;;;12.74;89.52
57250;BME280;43102;52.014;-0.680;2024-02-16T01:42:00;99729;;;12.74;89.52
57250;BME280;43102;52.014;-0.680;2024-02-16T01:43:00;99729;;;12.74;89.52
57250;BME280;43102;52.014;-0.680;2024-02-16T01:44:00;99721;;;12.75;89.52
57250;BME280;43102;52.014;-0.680;2024-02-16T01:45:00;99721;;;12.75;89.52
57250;BME280;43102;52.014;-0.680;2024-02-16T01:46:01;99721;;;12.75;89.52
57250;BME280;43102;52.014;-0.680;2024-02-16T01:47:00;99721;;;12.75;89.52
57250;BME280;43102;52.014;-0.680;2024-02-16T01:48:00;99721;;;12.75;89.52
57250;BME280;43102;52.014;-0.680;2024-02-16T01:49:00;99704;;;12.77;89.68
57250;BME280;43102;52.014;-0.680;2024-02-16T01:50:00;99704;;;12.77;89.68
57250;BME280;43102;52.014;-0.680;2024-02-16T01:51:00;99704;;;12.77;89.68
57250;BME280;43102;52.014;-0.680;2024-02-16T01:52:00;99704;;;12.77;89.68
57250;BME280;43102;52.014;-0.680;2024-02-16T01:53:00;99704;;;12.77;89.68
57250;BME280;43102;52.014;-0.680;2024-02-16T01:54:00;99716;;;12.75;89.82
57250;BME280;43102;52.014;-0.680;2024-02-16T01:55:00;99716;;;12.75;89.82
57250;BME280;43102;52.014;-0.680;2024-02-16T01:56:00;99716;;;12.75;89.82
57250;BME280;43102;52.014;-0.680;2024-02-16T01:57:00;99716;;;12.75;89.82
57250;BME280;43102;52.014;-0.680;2024-02-16T01:58:00;99716;;;12.75;89.82
57250;BME280;43102;52.014;-0.680;2024-02-16T01:59:00;99726;;;12.75;89.84
57250;BME280;43102;52.014;-0.680;2024-02-16T02:00:00;99726;;;12.75;89.84
57250;BME280;43102;52.014;-0.680;2024-02-16T02:01:00;99726;;;12.75;89.84
57250;BME280;43102;52.014;-0.680;2024-02-16T02:02:00;99726;;;12.75;89.84
57250;BME280;43102;52.014;-0.680;2024-02-16T02:03:00;99726;;;12.75;89.84
57250;BME280;43102;52.014;-0.680;2024-02-16T02:04:00;99726;;;12.76;90.08
57250;BME280;43102;52.014;-0.680;2024-02-16T02:05:00;99726;;;12.76;90.08
57250;BME280;43102;52.014;-0.680;2024-02-16T02:06:00;99726;;;12.76;90.08
57250;BME280;43102;52.014;-0.680;2024-02-16T02:07:00;99726;;;12.76;90.08
57250;BME280;43102;52.014;-0.680;2024-02-16T02:08:08;99726;;;12.76;90.08
57250;BME280;43102;52.014;-0.680;2024-02-16T02:09:00;99727;;;12.79;90.13
57250;BME280;43102;52.014;-0.680;2024-02-16T02:10:00;99727;;;12.79;90.13
57250;BME280;43102;52.014;-0.680;2024-02-16T02:11:00;99727;;;12.79;90.13
57250;BME280;43102;52.014;-0.680;2024-02-16T02:12:00;99727;;;12.79;90.13
57250;BME280;43102;52.014;-0.680;2024-02-16T02:13:00;99727;;;12.79;90.13
57250;BME280;43102;52.014;-0.680;2024-02-16T02:14:00;99737;;;12.78;90.22
57250;BME280;43102;52.014;-0.680;2024-02-16T02:15:00;99737;;;12.78;90.22
57250;BME280;43102;52.014;-0.680;2024-02-16T02:16:00;99737;;;12.78;90.22
57250;BME280;43102;52.014;-0.680;2024-02-16T02:17:00;99737;;;12.78;90.22
57250;BME280;43102;52.014;-0.680;2024-02-16T02:18:00;99737;;;12.78;90.22
57250;BME280;43102;52.014;-0.680;2024-02-16T02:19:00;99747;;;12.79;90.24
57250;BME280;43102;52.014;-0.680;2024-02-16T02:20:00;99747;;;12.79;90.24
57250;BME280;43102;52.014;-0.680;2024-02-16T02:21:00;99747;;;12.79;90.24
57250;BME280;43102;52.014;-0.680;2024-02-16T02:22:00;99747;;;12.79;90.24
57250;BME280;43102;52.014;-0.680;2024-02-16T02:23:00;99747;;;12.79;90.24
57250;BME280;43102;52.014;-0.680;2024-02-16T02:24:00;99746;;;12.79;90.29
57250;BME280;43102;52.014;-0.680;2024-02-16T02:25:00;99746;;;12.79;90.29
57250;BME280;43102;52.014;-0.680;2024-02-16T02:26:00;99746;;;12.79;90.29
57250;BME280;43102;52.014;-0.680;2024-02-16T02:27:00;99746;;;12.79;90.29
57250;BME280;43102;52.014;-0.680;2024-02-16T02:28:00;99746;;;12.79;90.29
57250;BME280;43102;52.014;-0.680;2024-02-16T02:29:00;99746;;;12.79;90.34
57250;BME280;43102;52.014;-0.680;2024-02-16T02:30:00;99746;;;12.79;90.34
57250;BME280;43102;52.014;-0.680;2024-02-16T02:31:00;99746;;;12.79;90.34
57250;BME280;43102;52.014;-0.680;2024-02-16T02:32:00;99746;;;12.79;90.34
57250;BME280;43102;52.014;-0.680;2024-02-16T02:33:00;99746;;;12.79;90.34
57250;BME280;43102;52.014;-0.680;2024-02-16T02:34:00;99744;;;12.78;90.45
57250;BME280;43102;52.014;-0.680;2024-02-16T02:35:01;99744;;;12.78;90.45
57250;BME280;43102;52.014;-0.680;2024-02-16T02:36:00;99744;;;12.78;90.45
57250;BME280;43102;52.014;-0.680;2024-02-16T02:37:00;99744;;;12.78;90.45
57250;BME280;43102;52.014;-0.680;2024-02-16T02:38:00;99744;;;12.78;90.45
57250;BME280;43102;52.014;-0.680;2024-02-16T02:39:00;99734;;;12.79;90.40
57250;BME280;43102;52.014;-0.680;2024-02-16T02:40:00;99734;;;12.79;90.40
57250;BME280;43102;52.014;-0.680;2024-02-16T02:41:00;99734;;;12.79;90.40
57250;BME280;43102;52.014;-0.680;2024-02-16T02:42:00;99734;;;12.79;90.40
57250;BME280;43102;52.014;-0.680;2024-02-16T02:43:00;99734;;;12.79;90.40
57250;BME280;43102;52.014;-0.680;2024-02-16T02:44:00;99737;;;12.77;90.34
57250;BME280;43102;52.014;-0.680;2024-02-16T02:45:00;99737;;;12.77;90.34
57250;BME280;43102;52.014;-0.680;2024-02-16T02:46:00;99737;;;12.77;90.34
57250;BME280;43102;52.014;-0.680;2024-02-16T02:47:00;99737;;;12.77;90.34
57250;BME280;43102;52.014;-0.680;2024-02-16T02:48:00;99737;;;12.77;90.34
57250;BME280;43102;52.014;-0.680;2024-02-16T02:49:00;99739;;;12.76;90.39
57250;BME280;43102;52.014;-0.680;2024-02-16T02:50:00;99739;;;12.76;90.39
57250;BME280;43102;52.014;-0.680;2024-02-16T02:51:00;99739;;;12.76;90.39
57250;BME280;43102;52.014;-0.680;2024-02-16T02:52:00;99739;;;12.76;90.39
57250;BME280;43102;52.014;-0.680;2024-02-16T02:53:00;99739;;;12.76;90.39
57250;BME280;43102;52.014;-0.680;2024-02-16T02:54:00;99744;;;12.76;90.33
57250;BME280;43102;52.014;-0.680;2024-02-16T02:55:00;99744;;;12.76;90.33
57250;BME280;43102;52.014;-0.680;2024-02-16T02:56:00;99744;;;12.76;90.33
57250;BME280;43102;52.014;-0.680;2024-02-16T02:57:00;99744;;;12.76;90.33
57250;BME280;43102;52.014;-0.680;2024-02-16T02:58:00;99744;;;12.76;90.33
57250;BME280;43102;52.014;-0.680;2024-02-16T02:59:00;99749;;;12.76;90.31
57250;BME280;43102;52.014;-0.680;2024-02-16T03:00:07;99749;;;12.76;90.31
57250;BME280;43102;52.014;-0.680;2024-02-16T03:01:00;99749;;;12.76;90.31
57250;BME280;43102;52.014;-0.680;2024-02-16T03:02:00;99749;;;12.76;90.31
57250;BME280;43102;52.014;-0.680;2024-02-16T03:03:00;99749;;;12.76;90.31
57250;BME280;43102;52.014;-0.680;2024-02-16T03:04:00;99744;;;12.77;90.31
57250;BME280;43102;52.014;-0.680;2024-02-16T03:05:00;99744;;;12.77;90.31
57250;BME280;43102;52.014;-0.680;2024-02-16T03:06:00;99744;;;12.77;90.31
57250;BME280;43102;52.014;-0.680;2024-02-16T03:07:00;99744;;;12.77;90.31
57250;BME280;43102;52.014;-0.680;2024-02-16T03:08:00;99744;;;12.77;90.31
57250;BME280;43102;52.014;-0.680;2024-02-16T03:09:00;99751;;;12.77;90.23
57250;BME280;43102;52.014;-0.680;2024-02-16T03:10:00;99751;;;12.77;90.23
57250;BME280;43102;52.014;-0.680;2024-02-16T03:11:00;99751;;;12.77;90.23
57250;BME280;43102;52.014;-0.680;2024-02-16T03:12:01;99751;;;12.77;90.23
57250;BME280;43102;52.014;-0.680;2024-02-16T03:13:00;99751;;;12.77;90.23
57250;BME280;43102;52.014;-0.680;2024-02-16T03:14:00;99757;;;12.75;90.18
57250;BME280;43102;52.014;-0.680;2024-02-16T03:15:00;99757;;;12.75;90.18
57250;BME280;43102;52.014;-0.680;2024-02-16T03:16:00;99757;;;12.75;90.18
57250;BME280;43102;52.014;-0.680;2024-02-16T03:17:00;99757;;;12.75;90.18
57250;BME280;43102;52.014;-0.680;2024-02-16T03:18:00;99757;;;12.75;90.18
57250;BME280;43102;52.014;-0.680;2024-02-16T03:19:00;99765;;;12.74;90.15
57250;BME280;43102;52.014;-0.680;2024-02-16T03:20:00;99765;;;12.74;90.15
57250;BME280;43102;52.014;-0.680;2024-02-16T03:21:00;99765;;;12.74;90.15
57250;BME280;43102;52.014;-0.680;2024-02-16T03:22:00;99765;;;12.74;90.15
57250;BME280;43102;52.014;-0.680;2024-02-16T03:23:00;99765;;;12.74;90.15
57250;BME280;43102;52.014;-0.680;2024-02-16T03:24:01;99779;;;12.72;90.14
57250;BME280;43102;52.014;-0.680;2024-02-16T03:25:00;99779;;;12.72;90.14
57250;BME280;43102;52.014;-0.680;2024-02-16T03:26:00;99779;;;12.72;90.14
57250;BME280;43102;52.014;-0.680;2024-02-16T03:27:00;99779;;;12.72;90.14
57250;BME280;43102;52.014;-0.680;2024-02-16T03:28:00;99779;;;12.72;90.14
57250;BME280;43102;52.014;-0.680;2024-02-16T03:29:00;99799;;;12.70;90.07
57250;BME280;43102;52.014;-0.680;2024-02-16T03:30:00;99799;;;12.70;90.07
57250;BME280;43102;52.014;-0.680;2024-02-16T03:31:00;99799;;;12.70;90.07
57250;BME280;43102;52.014;-0.680;2024-02-16T03:32:00;99799;;;12.70;90.07
57250;BME280;43102;52.014;-0.680;2024-02-16T03:33:00;99799;;;12.70;90.07
57250;BME280;43102;52.014;-0.680;2024-02-16T03:34:00;99800;;;12.68;90.07
57250;BME280;43102;52.014;-0.680;2024-02-16T03:35:00;99800;;;12.68;90.07
57250;BME280;43102;52.014;-0.680;2024-02-16T03:36:00;99800;;;12.68;90.07
57250;BME280;43102;52.014;-0.680;2024-02-16T03:37:00;99800;;;12.68;90.07
57250;BME280;43102;52.014;-0.680;2024-02-16T03:38:00;99800;;;12.68;90.07
57250;BME280;43102;52.014;-0.680;2024-02-16T03:39:00;99818;;;12.67;90.09
57250;BME280;43102;52.014;-0.680;2024-02-16T03:40:00;99818;;;12.67;90.09
57250;BME280;43102;52.014;-0.680;2024-02-16T03:41:00;99818;;;12.67;90.09
57250;BME280;43102;52.014;-0.680;2024-02-16T03:42:00;99818;;;12.67;90.09
57250;BME280;43102;52.014;-0.680;2024-02-16T03:43:00;99818;;;12.67;90.09
57250;BME280;43102;52.014;-0.680;2024-02-16T03:44:00;99836;;;12.63;89.99
57250;BME280;43102;52.014;-0.680;2024-02-16T03:45:00;99836;;;12.63;89.99
57250;BME280;43102;52.014;-0.680;2024-02-16T03:46:00;99836;;;12.63;89.99
57250;BME280;43102;52.014;-0.680;2024-02-16T03:47:00;99836;;;12.63;89.99
57250;BME280;43102;52.014;-0.680;2024-02-16T03:48:00;99836;;;12.63;89.99
57250;BME280;43102;52.014;-0.680;2024-02-16T03:49:00;99840;;;12.60;89.92
57250;BME280;43102;52.014;-0.680;2024-02-16T03:50:00;99840;;;12.60;89.92
57250;BME280;43102;52.014;-0.680;2024-02-16T03:51:00;99840;;;12.60;89.92
57250;BME280;43102;52.014;-0.680;2024-02-16T03:52:00;99840;;;12.60;89.92
57250;BME280;43102;52.014;-0.680;2024-02-16T03:53:00;99840;;;12.60;89.92
57250;BME280;43102;52.014;-0.680;2024-02-16T03:54:00;99866;;;12.57;89.91
57250;BME280;43102;52.014;-0.680;2024-02-16T03:55:00;99866;;;12.57;89.91
57250;BME280;43102;52.014;-0.680;2024-02-16T03:56:00;99866;;;12.57;89.91
57250;BME280;43102;52.014;-0.680;2024-02-16T03:57:00;99866;;;12.57;89.91
57250;BME280;43102;52.014;-0.680;2024-02-16T03:58:00;99866;;;12.57;89.91
57250;BME280;43102;52.014;-0.680;2024-02-16T03:59:00;99881;;;12.49;90.06
57250;BME280;43102;52.014;-0.680;2024-02-16T04:00:00;99881;;;12.49;90.06
57250;BME280;43102;52.014;-0.680;2024-02-16T04:01:00;99881;;;12.49;90.06
57250;BME280;43102;52.014;-0.680;2024-02-16T04:02:00;99881;;;12.49;90.06
57250;BME280;43102;52.014;-0.680;2024-02-16T04:03:00;99881;;;12.49;90.06
57250;BME280;43102;52.014;-0.680;2024-02-16T04:04:00;99888;;;12.35;90.42
57250;BME280;43102;52.014;-0.680;2024-02-16T04:05:00;99888;;;12.35;90.42
57250;BME280;43102;52.014;-0.680;2024-02-16T04:06:00;99888;;;12.35;90.42
57250;BME280;43102;52.014;-0.680;2024-02-16T04:07:00;99888;;;12.35;90.42
57250;BME280;43102;52.014;-0.680;2024-02-16T04:08:00;99888;;;12.35;90.42
57250;BME280;43102;52.014;-0.680;2024-02-16T04:09:00;99884;;;12.28;90.49
57250;BME280;43102;52.014;-0.680;2024-02-16T04:10:00;99884;;;12.28;90.49
57250;BME280;43102;52.014;-0.680;2024-02-16T04:11:00;99884;;;12.28;90.49
57250;BME280;43102;52.014;-0.680;2024-02-16T04:12:00;99884;;;12.28;90.49
57250;BME280;43102;52.014;-0.680;2024-02-16T04:13:00;99884;;;12.28;90.49
57250;BME280;43102;52.014;-0.680;2024-02-16T04:14:00;99889;;;12.29;90.18
57250;BME280;43102;52.014;-0.680;2024-02-16T04:15:00;99889;;;12.29;90.18
57250;BME280;43102;52.014;-0.680;2024-02-16T04:16:00;99889;;;12.29;90.18
57250;BME280;43102;52.014;-0.680;2024-02-16T04:17:00;99889;;;12.29;90.18
57250;BME280;43102;52.014;-0.680;2024-02-16T04:18:00;99889;;;12.29;90.18
57250;BME280;43102;52.014;-0.680;2024-02-16T04:19:00;99874;;;12.30;89.65
57250;BME280;43102;52.014;-0.680;2024-02-16T04:20:00;99874;;;12.30;89.65
57250;BME280;43102;52.014;-0.680;2024-02-16T04:21:00;99874;;;12.30;89.65
57250;BME280;43102;52.014;-0.680;2024-02-16T04:22:00;99874;;;12.30;89.65
57250;BME280;43102;52.014;-0.680;2024-02-16T04:23:00;99874;;;12.30;89.65
57250;BME280;43102;52.014;-0.680;2024-02-16T04:24:00;99851;;;12.33;89.75
57250;BME280;43102;52.014;-0.680;2024-02-16T04:25:00;99851;;;12.33;89.75
57250;BME280;43102;52.014;-0.680;2024-02-16T04:26:00;99851;;;12.33;89.75
57250;BME280;43102;52.014;-0.680;2024-02-16T04:27:00;99851;;;12.33;89.75
57250;BME280;43102;52.014;-0.680;2024-02-16T04:28:00;99851;;;12.33;89.75
57250;BME280;43102;52.014;-0.680;2024-02-16T04:29:00;99874;;;12.30;89.57
57250;BME280;43102;52.014;-0.680;2024-02-16T04:30:00;99874;;;12.30;89.57
57250;BME280;43102;52.014;-0.680;2024-02-16T04:31:00;99874;;;12.30;89.57
57250;BME280;43102;52.014;-0.680;2024-02-16T04:32:00;99874;;;12.30;89.57
57250;BME280;43102;52.014;-0.680;2024-02-16T04:33:00;99874;;;12.30;89.57
57250;BME280;43102;52.014;-0.680;2024-02-16T04:34:00;99892;;;12.27;89.50
57250;BME280;43102;52.014;-0.680;2024-02-16T04:35:00;99892;;;12.27;89.50
57250;BME280;43102;52.014;-0.680;2024-02-16T04:36:00;99892;;;12.27;89.50
57250;BME280;43102;52.014;-0.680;2024-02-16T04:37:00;99892;;;12.27;89.50
57250;BME280;43102;52.014;-0.680;2024-02-16T04:38:00;99892;;;12.27;89.50
57250;BME280;43102;52.014;-0.680;2024-02-16T04:39:00;99892;;;12.24;89.66
57250;BME280;43102;52.014;-0.680;2024-02-16T04:40:00;99892;;;12.24;89.66
57250;BME280;43102;52.014;-0.680;2024-02-16T04:41:00;99892;;;12.24;89.66
57250;BME280;43102;52.014;-0.680;2024-02-16T04:42:00;99892;;;12.24;89.66
57250;BME280;43102;52.014;-0.680;2024-02-16T04:43:00;99892;;;12.24;89.66
57250;BME280;43102;52.014;-0.680;2024-02-16T04:44:00;99915;;;12.21;89.59
57250;BME280;43102;52.014;-0.680;2024-02-16T04:45:00;99915;;;12.21;89.59
57250;BME280;43102;52.014;-0.680;2024-02-16T04:46:00;99915;;;12.21;89.59
57250;BME280;43102;52.014;-0.680;2024-02-16T04:47:00;99915;;;12.21;89.59
57250;BME280;43102;52.014;-0.680;2024-02-16T04:48:03;99915;;;12.21;89.59
57250;BME280;43102;52.014;-0.680;2024-02-16T04:49:00;99914;;;12.17;89.54
57250;BME280;43102;52.014;-0.680;2024-02-16T04:50:00;99914;;;12.17;89.54
57250;BME280;43102;52.014;-0.680;2024-02-16T04:51:00;99914;;;12.17;89.54
57250;BME280;43102;52.014;-0.680;2024-02-16T04:52:00;99914;;;12.17;89.54
57250;BME280;43102;52.014;-0.680;2024-02-16T04:53:00;99914;;;12.17;89.54
57250;BME280;43102;52.014;-0.680;2024-02-16T04:54:00;99894;;;12.16;89.54
57250;BME280;43102;52.014;-0.680;2024-02-16T04:55:00;99894;;;12.16;89.54
57250;BME280;43102;52.014;-0.680;2024-02-16T04:56:00;99894;;;12.16;89.54
57250;BME280;43102;52.014;-0.680;2024-02-16T04:57:00;99894;;;12.16;89.54
57250;BME280;43102;52.014;-0.680;2024-02-16T04:58:00;99894;;;12.16;89.54
57250;BME280;43102;52.014;-0.680;2024-02-16T04:59:00;99927;;;12.14;89.41
57250;BME280;43102;52.014;-0.680;2024-02-16T05:00:00;99927;;;12.14;89.41
57250;BME280;43102;52.014;-0.680;2024-02-16T05:01:00;99927;;;12.14;89.41
57250;BME280;43102;52.014;-0.680;2024-02-16T05:02:00;99927;;;12.14;89.41
57250;BME280;43102;52.014;-0.680;2024-02-16T05:03:00;99927;;;12.14;89.41
57250;BME280;43102;52.014;-0.680;2024-02-16T05:04:00;99944;;;12.06;89.33
57250;BME280;43102;52.014;-0.680;2024-02-16T05:05:00;99944;;;12.06;89.33
57250;BME280;43102;52.014;-0.680;2024-02-16T05:06:00;99944;;;12.06;89.33
57250;BME280;43102;52.014;-0.680;2024-02-16T05:07:00;99944;;;12.06;89.33
57250;BME280;43102;52.014;-0.680;2024-02-16T05:08:00;99944;;;12.06;89.33
57250;BME280;43102;52.014;-0.680;2024-02-16T05:09:00;99959;;;12.06;89.45
57250;BME280;43102;52.014;-0.680;2024-02-16T05:10:00;99959;;;12.06;89.45
57250;BME280;43102;52.014;-0.680;2024-02-16T05:11:00;99959;;;12.06;89.45
57250;BME280;43102;52.014;-0.680;2024-02-16T05:12:00;99959;;;12.06;89.45
57250;BME280;43102;52.014;-0.680;2024-02-16T05:13:00;99959;;;12.06;89.45
57250;BME280;43102;52.014;-0.680;2024-02-16T05:14:00;99957;;;12.05;89.41
57250;BME280;43102;52.014;-0.680;2024-02-16T05:15:00;99957;;;12.05;89.41
57250;BME280;43102;52.014;-0.680;2024-02-16T05:16:00;99957;;;12.05;89.41
57250;BME280;43102;52.014;-0.680;2024-02-16T05:17:00;99957;;;12.05;89.41
57250;BME280;43102;52.014;-0.680;2024-02-16T05:18:00;99957;;;12.05;89.41
57250;BME280;43102;52.014;-0.680;2024-02-16T05:19:00;99959;;;12.00;89.18
57250;BME280;43102;52.014;-0.680;2024-02-16T05:20:00;99959;;;12.00;89.18
57250;BME280;43102;52.014;-0.680;2024-02-16T05:21:00;99959;;;12.00;89.18
57250;BME280;43102;52.014;-0.680;2024-02-16T05:22:00;99959;;;12.00;89.18
57250;BME280;43102;52.014;-0.680;2024-02-16T05:23:00;99959;;;12.00;89.18
57250;BME280;43102;52.014;-0.680;2024-02-16T05:24:00;99953;;;11.99;89.21
57250;BME280;43102;52.014;-0.680;2024-02-16T05:25:00;99953;;;11.99;89.21
57250;BME280;43102;52.014;-0.680;2024-02-16T05:26:00;99953;;;11.99;89.21